Time;durP1;ratioP1;P1;durP2;ratioP2;P2;SDS_P1;SDS_P2;PMS_P1;PMS_P2;Temp;Humidity;BMP_temperature;BMP_pressure;BME280_temperature;BME280_humidity;BME280_pressure;Samples;Min_cycle;Max_cycle;Signal;HPM_P1;HPM_P2
2022/05/15 00:00:44;;;;;;;7.15;4.47;;;;;;;11.84;64.27;100069.94;1645614;85;21584;-69
2022/05/15 00:03:20;;;;;;;12.15;4.08;;;;;;;11.85;64.20;100070.27;1663025;85;21013;-69
2022/05/15 00:05:55;;;;;;;8.05;4.87;;;;;;;11.84;64.21;100068.61;1673346;85;21076;-69
2022/05/15 00:08:23;;;;;;;12.13;5.78;;;;;;;11.82;64.08;100061.84;1664338;85;21071;-69
2022/05/15 00:10:50;;;;;;;9.00;5.87;;;;;;;11.81;63.99;100066.36;1663080;85;21083;-70
2022/05/15 00:13:18;;;;;;;7.45;5.28;;;;;;;11.82;63.89;100068.52;1664426;85;21075;-69
2022/05/15 00:15:49;;;;;;;9.65;5.12;;;;;;;11.82;63.82;100067.99;1672073;85;21054;-69
2022/05/15 00:18:19;;;;;;;12.85;5.75;;;;;;;11.81;63.88;100063.69;1669308;84;22261;-69
2022/05/15 00:20:46;;;;;;;8.78;5.08;;;;;;;11.78;63.80;100065.42;1664214;85;21128;-69
2022/05/15 00:23:13;;;;;;;7.95;4.33;;;;;;;11.76;63.92;100063.98;1662942;83;21147;-70
2022/05/15 00:25:40;;;;;;;5.92;4.83;;;;;;;11.74;64.07;100063.38;1663090;85;21060;-69
2022/05/15 00:28:07;;;;;;;8.33;4.83;;;;;;;11.71;63.97;100062.44;1663064;85;21159;-70
2022/05/15 00:30:36;;;;;;;7.85;4.00;;;;;;;11.71;64.04;100056.57;1663007;85;21171;-69
2022/05/15 00:33:06;;;;;;;4.70;3.65;;;;;;;11.70;64.08;100061.62;1663132;85;21123;-68
2022/05/15 00:35:35;;;;;;;7.08;3.27;;;;;;;11.71;64.08;100068.58;1662895;85;21980;-69
2022/05/15 00:38:04;;;;;;;9.38;3.62;;;;;;;11.68;64.31;100064.48;1662656;85;21099;-69
2022/05/15 00:40:31;;;;;;;6.12;3.65;;;;;;;11.61;64.31;100063.64;1663027;85;21127;-69
2022/05/15 00:42:57;;;;;;;7.78;3.80;;;;;;;11.51;64.55;100068.55;1681674;85;21565;-69
2022/05/15 00:45:25;;;;;;;6.90;2.75;;;;;;;11.47;64.81;100071.29;1663171;85;21060;-69
2022/05/15 00:47:51;;;;;;;6.15;3.17;;;;;;;11.42;65.04;100067.90;1662253;85;21163;-69
2022/05/15 00:50:26;;;;;;;5.17;2.77;;;;;;;11.37;65.20;100062.85;1663325;85;21048;-70
2022/05/15 00:52:56;;;;;;;8.83;2.98;;;;;;;11.33;65.28;100069.09;1681581;85;21140;-69
2022/05/15 00:55:39;;;;;;;3.95;2.65;;;;;;;11.32;65.24;100060.80;1661951;85;21187;-68
2022/05/15 00:58:22;;;;;;;8.35;3.27;;;;;;;11.32;65.26;100055.95;1663543;85;21100;-69
2022/05/15 01:00:49;;;;;;;4.15;2.90;;;;;;;11.32;65.28;100062.13;1656797;83;21569;-68
2022/05/15 01:03:19;;;;;;;4.28;2.22;;;;;;;11.30;65.36;100056.98;1664350;85;21068;-69
2022/05/15 01:05:51;;;;;;;5.08;2.55;;;;;;;11.31;65.40;100060.47;1662526;86;21611;-71
2022/05/15 01:08:20;;;;;;;2.02;1.70;;;;;;;11.30;65.54;100058.81;1662651;85;21072;-69
2022/05/15 01:10:52;;;;;;;2.87;2.20;;;;;;;11.32;65.59;100059.47;1663509;85;21052;-69
2022/05/15 01:13:21;;;;;;;4.50;2.10;;;;;;;11.34;65.61;100060.58;1667168;85;21893;-69
2022/05/15 01:15:49;;;;;;;4.50;2.10;;;;;;;11.36;65.61;100055.86;1663547;85;21557;-70
2022/05/15 01:18:30;;;;;;;4.00;1.57;;;;;;;11.38;65.59;100051.98;1663253;85;21052;-68
2022/05/15 01:21:05;;;;;;;3.27;2.27;;;;;;;11.39;65.66;100057.61;1663243;85;21111;-68
2022/05/15 01:23:32;;;;;;;3.20;1.32;;;;;;;11.38;65.49;100053.31;1675857;85;21602;-69
2022/05/15 01:25:58;;;;;;;4.03;1.77;;;;;;;11.39;65.45;100056.28;1666027;85;21076;-69
2022/05/15 01:28:27;;;;;;;4.40;2.42;;;;;;;11.38;65.43;100054.66;1663343;85;21079;-69
2022/05/15 01:30:59;;;;;;;3.52;2.02;;;;;;;11.38;65.44;100056.50;1663198;85;21087;-69
2022/05/15 01:33:26;;;;;;;3.70;1.95;;;;;;;11.39;65.51;100052.80;1663258;85;21068;-70
2022/05/15 01:35:52;;;;;;;3.55;1.72;;;;;;;11.41;65.60;100052.90;1642333;86;21048;-70
2022/05/15 01:38:19;;;;;;;;;;;;;;;11.40;65.70;100048.59;1681555;85;21095;-70
2022/05/15 01:40:49;;;;;;;4.03;1.70;;;;;;;11.36;65.81;100041.17;1663320;85;20126;-69
2022/05/15 01:43:16;;;;;;;6.10;1.87;;;;;;;11.28;66.07;100042.19;1642053;86;21132;-70
2022/05/15 01:45:42;;;;;;;3.27;1.55;;;;;;;11.28;66.12;100044.85;1663326;85;21072;-70
2022/05/15 01:48:08;;;;;;;;;;;;;;;11.33;66.24;100037.59;1649599;85;21078;-70
2022/05/15 01:50:35;;;;;;;6.50;2.43;;;;;;;11.32;66.17;100031.94;1673506;84;20562;-68
2022/05/15 01:53:01;;;;;;;4.08;1.57;;;;;;;11.26;66.28;100040.23;1662559;85;22149;-68
2022/05/15 01:55:27;;;;;;;3.87;1.35;;;;;;;11.27;66.25;100036.03;1663272;85;21008;-70
2022/05/15 01:57:54;;;;;;;2.80;1.30;;;;;;;11.28;66.11;100027.02;1663375;85;21056;-70
2022/05/15 02:00:25;;;;;;;10.43;1.80;;;;;;;11.28;66.11;100027.02;1663372;83;21068;-69
2022/05/15 02:02:52;;;;;;;1.35;0.88;;;;;;;11.29;66.22;100025.98;1663161;85;21080;-69
2022/05/15 02:05:21;;;;;;;8.08;1.50;;;;;;;11.28;66.14;100031.02;1663388;85;21206;-69
2022/05/15 02:07:48;;;;;;;2.77;1.37;;;;;;;11.28;66.18;100027.51;1663080;85;21565;-69
2022/05/15 02:10:17;;;;;;;6.90;2.40;;;;;;;11.28;66.17;100028.35;1662995;85;21099;-70
2022/05/15 02:12:45;;;;;;;2.40;1.50;;;;;;;11.30;66.16;100029.46;1663135;83;21066;-70
2022/05/15 02:15:14;;;;;;;2.72;1.45;;;;;;;11.30;66.17;100032.98;1666994;84;21097;-69
2022/05/15 02:17:42;;;;;;;2.70;2.08;;;;;;;11.27;66.23;100023.21;1638389;85;21126;-68
2022/05/15 02:20:13;;;;;;;5.40;1.82;;;;;;;11.24;66.30;100025.75;1636670;85;21301;-69
2022/05/15 02:22:40;;;;;;;2.47;1.10;;;;;;;11.15;66.51;100011.46;1657318;84;21080;-70
2022/05/15 02:25:10;;;;;;;1.65;1.40;;;;;;;11.23;66.52;100016.12;1661488;85;21111;-69
2022/05/15 02:27:38;;;;;;;5.08;1.80;;;;;;;11.28;66.43;100011.02;1663291;85;21095;-70
2022/05/15 02:30:08;;;;;;;2.50;1.45;;;;;;;11.34;66.35;100014.72;1681812;85;21029;-70
2022/05/15 02:32:35;;;;;;;2.65;1.15;;;;;;;11.39;66.29;100010.91;1663596;85;21554;-69
2022/05/15 02:35:01;;;;;;;6.87;1.47;;;;;;;11.43;66.16;100004.66;1664536;85;21123;-70
2022/05/15 02:37:28;;;;;;;6.55;1.52;;;;;;;11.44;66.23;100015.14;1679248;84;21076;-69
2022/05/15 02:39:55;;;;;;;2.90;1.90;;;;;;;11.46;66.31;100015.77;1663012;85;21103;-69
2022/05/15 02:42:22;;;;;;;3.75;1.17;;;;;;;11.47;66.39;100012.58;1650345;85;21234;-69
2022/05/15 02:44:49;;;;;;;5.67;1.50;;;;;;;11.48;66.39;100012.89;1651391;85;21183;-70
2022/05/15 02:47:16;;;;;;;2.33;1.57;;;;;;;11.47;66.63;100013.42;1652080;86;21035;-69
2022/05/15 02:52:27;;;;;;;2.65;1.55;;;;;;;11.42;67.11;100025.20;1667130;85;21186;-69
2022/05/15 02:54:53;;;;;;;4.37;1.80;;;;;;;11.43;67.45;100029.53;1646759;85;21071;-70
2022/05/15 02:57:21;;;;;;;2.95;1.22;;;;;;;11.44;67.67;100033.83;1670437;84;21006;-68
2022/05/15 02:59:47;;;;;;;4.40;1.52;;;;;;;11.47;68.03;100045.44;1684415;85;21047;-68
2022/05/15 03:02:14;;;;;;;3.37;1.32;;;;;;;11.49;68.23;100048.73;1662234;85;20996;-69
2022/05/15 03:04:40;;;;;;;4.35;2.37;;;;;;;11.53;68.44;100038.97;1661027;85;21165;-68
2022/05/15 03:07:07;;;;;;;6.03;2.62;;;;;;;11.56;68.90;100039.91;1606719;88;21740;-69
2022/05/15 03:09:34;;;;;;;7.47;2.10;;;;;;;11.54;69.06;100048.11;1642044;86;21122;-69
2022/05/15 03:12:01;;;;;;;8.40;2.83;;;;;;;11.48;69.57;100056.94;1615299;86;21110;-69
2022/05/15 03:14:28;;;;;;;11.48;2.83;;;;;;;11.45;69.64;100051.98;1611768;88;21365;-69
2022/05/15 03:16:54;;;;;;;6.95;2.65;;;;;;;11.45;70.08;100054.17;1569601;90;21526;-68
2022/05/15 03:19:20;;;;;;;4.37;2.05;;;;;;;11.44;70.08;100051.17;1587461;88;21051;-71
2022/05/15 03:21:47;;;;;;;2.80;2.12;;;;;;;11.44;70.26;100047.69;1585345;88;21027;-70
2022/05/15 03:24:13;;;;;;;3.90;2.33;;;;;;;11.44;70.39;100051.17;1618096;87;21133;-69
2022/05/15 03:26:45;;;;;;;4.80;2.05;;;;;;;11.46;70.40;100055.80;1582183;88;21177;-69
2022/05/15 03:29:15;;;;;;;5.30;2.62;;;;;;;11.49;70.36;100052.73;1597163;87;21137;-69
2022/05/15 03:31:42;;;;;;;5.75;2.05;;;;;;;11.52;70.22;100051.50;1618152;87;21043;-70
2022/05/15 03:34:12;;;;;;;2.22;2.02;;;;;;;11.60;70.01;100059.34;1612914;88;21596;-69
2022/05/15 03:36:41;;;;;;;5.70;2.22;;;;;;;11.66;69.84;100056.38;1661090;86;21549;-69
2022/05/15 03:39:09;;;;;;;5.50;3.12;;;;;;;11.71;69.81;100058.42;1655178;85;21159;-69
2022/05/15 03:41:37;;;;;;;11.95;3.12;;;;;;;11.69;69.48;100057.29;1656866;85;21079;-70
2022/05/15 03:44:04;;;;;;;5.67;2.08;;;;;;;11.71;69.42;100057.91;1618967;87;21091;-71
2022/05/15 03:46:30;;;;;;;5.42;3.05;;;;;;;11.72;69.26;100055.56;1603912;88;21143;-68
2022/05/15 03:48:58;;;;;;;4.85;2.50;;;;;;;11.73;69.11;100061.19;1597073;87;21558;-68
2022/05/15 03:51:25;;;;;;;4.00;2.77;;;;;;;11.75;69.11;100061.00;1592993;87;21050;-69
2022/05/15 03:53:51;;;;;;;5.17;3.08;;;;;;;11.78;68.87;100062.75;1585262;88;21377;-69
2022/05/15 03:56:17;;;;;;;4.87;2.45;;;;;;;11.78;68.98;100058.75;1569884;87;21626;-69
2022/05/15 03:58:44;;;;;;;7.17;2.87;;;;;;;11.77;69.06;100056.27;1571423;88;21652;-69
2022/05/15 04:01:12;;;;;;;6.30;2.52;;;;;;;11.73;68.95;100049.70;1590696;87;21080;-69
2022/05/15 04:03:39;;;;;;;6.62;3.27;;;;;;;11.73;69.09;100053.70;1594097;89;21866;-69
2022/05/15 04:06:05;;;;;;;8.33;2.60;;;;;;;11.75;69.08;100051.13;1637724;86;21063;-69
2022/05/15 04:08:31;;;;;;;3.62;2.50;;;;;;;11.74;69.16;100056.17;1649836;85;21072;-69
2022/05/15 04:10:58;;;;;;;4.22;3.05;;;;;;;11.72;69.30;100066.77;1669522;83;21035;-69
2022/05/15 04:13:24;;;;;;;6.70;2.95;;;;;;;11.69;69.29;100066.63;1681808;82;20991;-70
2022/05/15 04:15:50;;;;;;;8.38;3.27;;;;;;;11.67;69.62;100066.02;1671039;83;21038;-69
2022/05/15 04:18:17;;;;;;;6.20;2.80;;;;;;;11.68;69.60;100061.00;1680050;83;21639;-69
2022/05/15 04:20:43;;;;;;;9.65;3.52;;;;;;;11.69;69.57;100064.78;1716207;83;21021;-69
2022/05/15 04:23:09;;;;;;;5.30;3.10;;;;;;;11.71;69.74;100064.58;1687022;83;21057;-70
2022/05/15 04:25:36;;;;;;;9.63;3.65;;;;;;;11.77;69.57;100072.30;1650887;85;21110;-70
2022/05/15 04:28:02;;;;;;;4.35;3.05;;;;;;;11.82;69.46;100076.00;1668142;85;21144;-70
2022/05/15 04:30:30;;;;;;;8.20;3.83;;;;;;;11.91;69.34;100078.53;1667771;85;21048;-69
2022/05/15 04:32:56;;;;;;;9.20;3.70;;;;;;;11.96;68.94;100075.56;1624439;87;21094;-70
2022/05/15 04:35:23;;;;;;;5.92;3.40;;;;;;;11.98;68.73;100072.17;1631233;85;21012;-69
2022/05/15 04:37:51;;;;;;;9.45;3.75;;;;;;;12.03;68.53;100075.55;1663881;85;21079;-70
2022/05/15 04:40:18;;;;;;;;;;;;;;;12.09;68.46;100076.06;1666803;85;21036;-69
2022/05/15 04:42:44;;;;;;;8.23;3.98;;;;;;;12.17;68.29;100071.05;1675546;85;20494;-70
2022/05/15 04:45:11;;;;;;;4.90;3.50;;;;;;;12.15;67.84;100067.25;1673609;85;21555;-70
2022/05/15 04:47:37;;;;;;;7.05;3.17;;;;;;;12.19;67.24;100073.82;1685815;84;21057;-69
2022/05/15 04:50:05;;;;;;;4.95;2.95;;;;;;;12.20;67.28;100075.45;1664882;85;21076;-71
2022/05/15 04:52:31;;;;;;;3.22;2.47;;;;;;;12.21;67.30;100077.63;1664709;86;21560;-70
2022/05/15 04:54:57;;;;;;;5.30;3.25;;;;;;;12.26;66.95;100075.98;1664497;85;21052;-70
2022/05/15 04:57:23;;;;;;;6.53;2.72;;;;;;;12.31;66.87;100081.22;1662335;85;21071;-70
2022/05/15 04:59:49;;;;;;;;;;;;;;;12.33;67.01;100079.16;1667811;85;21083;-72
2022/05/15 05:02:15;;;;;;;3.47;3.17;;;;;;;12.36;66.75;100084.11;1656241;84;20190;-70
2022/05/15 05:04:41;;;;;;;3.90;2.50;;;;;;;12.41;66.50;100080.28;1674828;84;21130;-70
2022/05/15 05:07:08;;;;;;;3.10;1.95;;;;;;;12.55;66.26;100088.61;1676650;85;22198;-70
2022/05/15 05:09:36;;;;;;;4.80;1.95;;;;;;;12.73;65.52;100079.92;1653241;85;21056;-70
2022/05/15 05:12:03;;;;;;;4.40;2.70;;;;;;;12.96;64.79;100083.50;1655127;85;21024;-69
2022/05/15 05:14:30;;;;;;;7.25;2.50;;;;;;;13.13;63.51;100085.69;1664558;85;21816;-70
2022/05/15 05:16:56;;;;;;;3.95;2.92;;;;;;;13.17;63.41;100092.28;1663294;85;21688;-69
2022/05/15 05:19:23;;;;;;;5.47;2.27;;;;;;;13.22;62.99;100089.77;1662329;85;21158;-71
2022/05/15 05:21:50;;;;;;;3.10;1.62;;;;;;;13.22;62.82;100079.06;1662235;85;22123;-70
2022/05/15 05:24:16;;;;;;;3.92;2.47;;;;;;;13.22;62.75;100082.59;1663432;85;21592;-69
2022/05/15 05:26:42;;;;;;;7.10;1.92;;;;;;;13.28;63.12;100082.26;1662466;85;21104;-69
2022/05/15 05:29:08;;;;;;;4.08;2.50;;;;;;;13.34;62.48;100077.42;1662713;85;21553;-70
2022/05/15 05:31:34;;;;;;;4.55;2.75;;;;;;;13.34;62.21;100079.28;1662507;85;21080;-70
2022/05/15 05:34:01;;;;;;;4.70;2.25;;;;;;;13.36;62.13;100077.20;1662265;85;21154;-69
2022/05/15 05:36:27;;;;;;;;;;;;;;;13.39;62.15;100069.58;1665204;85;21088;-70
2022/05/15 05:38:54;;;;;;;4.78;2.27;;;;;;;13.43;62.45;100065.43;1662711;85;20910;-69
2022/05/15 05:41:20;;;;;;;4.80;1.75;;;;;;;13.37;61.81;100064.95;1681123;85;21150;-70
2022/05/15 05:43:46;;;;;;;6.97;2.20;;;;;;;13.33;61.84;100066.91;1681216;85;21212;-69
2022/05/15 05:46:12;;;;;;;;;;;;;;;13.33;61.94;100064.23;1647808;85;21575;-70
2022/05/15 05:48:45;;;;;;;6.95;2.30;;;;;;;13.32;62.74;100072.80;1662921;85;20198;-70
2022/05/15 05:51:08;;;;;;;5.78;1.77;;;;;;;13.30;62.58;100073.98;1663149;83;21128;-70
2022/05/15 05:53:34;;;;;;;;;;;;;;;13.34;62.43;100077.42;1665243;86;21124;-70
2022/05/15 05:56:01;;;;;;;3.25;1.20;;;;;;;13.37;61.67;100078.84;1660184;85;20434;-70
2022/05/15 05:58:27;;;;;;;2.42;1.20;;;;;;;13.35;61.99;100080.91;1654717;85;21052;-70
2022/05/15 06:00:53;;;;;;;3.05;1.67;;;;;;;13.42;61.98;100075.02;1662205;85;21150;-70
2022/05/15 06:06:03;;;;;;;7.17;1.50;;;;;;;13.51;60.53;100072.92;1662486;85;21147;-69
2022/05/15 06:08:31;;;;;;;6.45;1.67;;;;;;;13.50;60.90;100081.97;1661916;85;21132;-69
2022/05/15 06:10:58;;;;;;;4.70;1.72;;;;;;;13.51;60.91;100077.75;1661294;85;21088;-69
2022/05/15 06:13:25;;;;;;;4.40;1.35;;;;;;;13.53;60.77;100075.67;1663448;85;21072;-71
2022/05/15 06:15:54;;;;;;;2.75;1.45;;;;;;;13.55;61.03;100076.80;1662248;85;22372;-70
2022/05/15 06:18:21;;;;;;;2.98;1.55;;;;;;;13.54;60.78;100080.50;1675381;85;21112;-70
2022/05/15 06:20:47;;;;;;;5.60;1.57;;;;;;;13.51;60.96;100083.10;1667826;85;21151;-69
2022/05/15 06:23:13;;;;;;;3.67;1.37;;;;;;;13.50;61.39;100087.33;1662245;85;21075;-69
2022/05/15 06:25:40;;;;;;;4.58;2.25;;;;;;;13.50;61.68;100088.66;1663337;85;21579;-71
2022/05/15 06:28:07;;;;;;;4.35;1.30;;;;;;;13.49;61.93;100091.05;1662014;85;21623;-69
2022/05/15 06:30:33;;;;;;;3.92;1.62;;;;;;;13.46;62.29;100085.59;1661465;85;21524;-69
2022/05/15 06:33:01;;;;;;;4.70;1.40;;;;;;;13.48;62.51;100089.40;1662016;85;21087;-70
2022/05/15 06:35:29;;;;;;;4.87;1.40;;;;;;;13.50;62.47;100088.66;1662535;85;21005;-70
2022/05/15 06:37:55;;;;;;;3.92;2.05;;;;;;;13.49;62.66;100083.02;1662369;85;21085;-70
2022/05/15 06:40:22;;;;;;;5.50;1.67;;;;;;;13.49;62.61;100087.85;1662441;85;21048;-70
2022/05/15 06:42:48;;;;;;;;;;;;;;;13.52;62.45;100089.27;1664951;85;21175;-70
2022/05/15 06:45:15;;;;;;;;;;;;;;;13.53;62.58;100092.27;1665032;85;20174;-70
2022/05/15 06:47:42;;;;;;;4.08;1.70;;;;;;;13.48;63.01;100096.91;1671566;84;20140;-69
2022/05/15 06:50:10;;;;;;;2.80;1.80;;;;;;;13.41;63.27;100106.33;1674031;85;21159;-70
2022/05/15 06:52:39;;;;;;;4.37;2.05;;;;;;;13.39;64.06;100097.69;1662488;85;21340;-70
2022/05/15 06:55:16;;;;;;;2.85;1.75;;;;;;;13.34;64.26;100096.68;1662598;85;21083;-70
2022/05/15 06:57:44;;;;;;;3.33;1.42;;;;;;;13.31;65.72;100092.55;1672128;85;21488;-71
2022/05/15 07:00:19;;;;;;;4.53;3.00;;;;;;;13.33;66.07;100093.16;1672348;85;21077;-71
2022/05/15 07:02:46;;;;;;;3.08;1.70;;;;;;;13.31;67.23;100088.53;1662589;85;21102;-70
2022/05/15 07:05:20;;;;;;;2.95;2.33;;;;;;;13.28;67.79;100078.24;1662389;85;21508;-70
2022/05/15 07:07:52;;;;;;;1.67;1.22;;;;;;;13.29;68.01;100084.41;1661447;85;21187;-71
2022/05/15 07:10:20;;;;;;;3.67;1.98;;;;;;;13.39;68.75;100078.10;1662586;85;21095;-72
2022/05/15 07:12:47;;;;;;;3.60;2.00;;;;;;;13.56;68.79;100072.58;1669514;85;21021;-71
2022/05/15 07:15:14;;;;;;;5.05;1.60;;;;;;;13.80;67.67;100065.61;1673465;85;21076;-70
2022/05/15 07:17:41;;;;;;;3.37;1.55;;;;;;;14.08;66.69;100063.05;1669084;85;21116;-73
2022/05/15 07:20:08;;;;;;;5.00;2.02;;;;;;;14.50;65.87;100070.02;1690444;85;21035;-71
2022/05/15 07:22:36;;;;;;;5.15;1.67;;;;;;;14.93;65.72;100065.17;1667125;85;21532;-71
2022/05/15 07:25:04;;;;;;;3.92;1.15;;;;;;;15.27;61.65;100066.94;1662331;85;21614;-70
2022/05/15 07:27:30;;;;;;;3.17;1.50;;;;;;;15.41;60.21;100057.37;1662387;85;21144;-70
2022/05/15 07:29:56;;;;;;;4.53;1.50;;;;;;;15.56;59.46;100060.49;1662323;85;21009;-71
2022/05/15 07:32:22;;;;;;;5.22;1.37;;;;;;;15.67;57.95;100057.03;1662369;85;21579;-70
2022/05/15 07:34:49;;;;;;;3.92;1.37;;;;;;;15.79;57.47;100051.71;1663019;85;21032;-70
2022/05/15 07:37:17;;;;;;;7.40;1.95;;;;;;;15.91;57.02;100057.11;1662702;85;21127;-71
2022/05/15 07:39:43;;;;;;;4.35;1.70;;;;;;;16.02;57.22;100044.22;1662375;85;21073;-72
2022/05/15 07:42:11;;;;;;;4.60;1.67;;;;;;;16.20;56.04;100053.23;1679100;85;21085;-70
2022/05/15 07:44:39;;;;;;;1.70;1.02;;;;;;;16.35;54.82;100045.02;1663579;85;21096;-71
2022/05/15 07:47:06;;;;;;;4.35;0.90;;;;;;;16.48;53.31;100045.82;1662421;85;21091;-71
2022/05/15 07:49:34;;;;;;;2.10;0.80;;;;;;;16.59;53.04;100044.19;1662431;85;21059;-71
2022/05/15 07:52:00;;;;;;;6.22;0.98;;;;;;;16.67;52.38;100038.44;1662327;85;21084;-71
2022/05/15 07:54:27;;;;;;;;;;;;;;;16.79;52.32;100040.59;1664870;85;21123;-70
2022/05/15 07:56:54;;;;;;;4.25;0.98;;;;;;;16.89;51.97;100047.56;1662575;85;20984;-71
2022/05/15 07:59:21;;;;;;;3.27;0.93;;;;;;;16.97;50.69;100042.88;1662553;85;21029;-72
2022/05/15 08:01:47;;;;;;;;;;;;;;;17.04;50.07;100040.33;1677133;85;21024;-73
2022/05/15 08:04:13;;;;;;;1.45;0.68;;;;;;;17.11;49.79;100038.86;1676492;85;20161;-71
2022/05/15 08:09:25;;;;;;;3.15;0.62;;;;;;;17.20;48.14;100038.78;1667175;85;21123;-71
2022/05/15 08:11:51;;;;;;;;;;;;;;;17.24;47.96;100039.94;1665236;85;21112;-72
2022/05/15 08:14:18;;;;;;;2.22;0.53;;;;;;;17.24;48.82;100037.77;1662379;85;20552;-71
2022/05/15 08:16:44;;;;;;;2.85;1.05;;;;;;;17.28;49.02;100030.84;1662942;85;21123;-70
2022/05/15 08:23:36;;;;;;;6.83;0.95;;;;;;;17.49;47.54;100023.95;1682199;80;21048;-71
2022/05/15 08:26:06;;;;;;;2.45;0.70;;;;;;;17.47;47.60;100010.72;1662642;85;21072;-71
2022/05/15 08:28:34;;;;;;;1.55;0.57;;;;;;;17.61;46.53;100006.37;1668213;85;21009;-71
2022/05/15 08:31:04;;;;;;;4.45;0.50;;;;;;;17.61;46.53;100006.37;1655287;85;21107;-70
2022/05/15 08:33:31;;;;;;;5.40;0.82;;;;;;;17.61;46.71;100012.61;1658025;85;21053;-71
2022/05/15 08:35:57;;;;;;;2.52;0.55;;;;;;;17.61;46.71;100012.61;1680333;84;21227;-71
2022/05/15 08:38:25;;;;;;;2.00;0.93;;;;;;;17.62;46.38;100016.92;1677451;84;21080;-71
2022/05/15 08:41:17;;;;;;;1.67;0.62;;;;;;;17.60;46.42;100013.66;1659988;84;21112;-70
2022/05/15 08:43:51;;;;;;;4.20;0.65;;;;;;;17.61;46.32;100013.95;1667228;84;21013;-71
2022/05/15 08:46:45;;;;;;;4.97;0.65;;;;;;;17.64;45.87;100008.06;1656162;85;21772;-71
2022/05/15 08:49:42;;;;;;;3.00;0.78;;;;;;;17.58;45.12;100005.00;1656556;84;21088;-71
2022/05/15 08:52:49;;;;;;;3.40;0.88;;;;;;;17.48;45.72;100006.17;1655529;85;21078;-71
2022/05/15 08:55:35;;;;;;;7.85;0.65;;;;;;;17.46;45.62;100005.06;1662490;83;21079;-72
2022/05/15 08:58:07;;;;;;;1.27;0.40;;;;;;;17.41;45.48;100012.23;1715267;83;21112;-71
2022/05/15 09:00:46;;;;;;;3.22;0.40;;;;;;;17.29;45.64;100011.76;1706521;82;21034;-70
2022/05/15 09:03:21;;;;;;;2.92;0.65;;;;;;;17.26;46.01;100004.69;1666506;84;21075;-72
2022/05/15 09:06:25;;;;;;;1.75;0.70;;;;;;;17.21;46.50;100001.89;1654166;85;21074;-72
2022/05/15 09:09:19;;;;;;;1.65;0.40;;;;;;;17.23;45.51;100010.00;1629163;87;21205;-71
2022/05/15 09:12:03;;;;;;;2.67;1.30;;;;;;;17.26;45.44;100008.19;1632946;84;21202;-71
2022/05/15 09:15:01;;;;;;;3.95;1.37;;;;;;;17.26;45.44;100008.19;1643196;86;21062;-70
2022/05/15 09:17:45;;;;;;;3.10;1.40;;;;;;;17.33;45.67;100004.02;1644167;86;21258;-72
2022/05/15 09:20:26;;;;;;;2.25;0.80;;;;;;;17.46;45.40;100006.41;1652989;86;21589;-71
2022/05/15 09:23:16;;;;;;;4.62;1.55;;;;;;;17.64;45.31;100000.52;1622359;87;21110;-71
2022/05/15 09:25:43;;;;;;;2.33;0.90;;;;;;;17.76;44.20;99996.39;1608227;87;21191;-71
2022/05/15 09:28:12;;;;;;;2.27;0.88;;;;;;;17.84;43.51;99991.96;1619104;87;21166;-72
2022/05/15 09:30:44;;;;;;;5.17;2.30;;;;;;;17.87;43.59;99986.91;1648430;85;21068;-71
2022/05/15 09:33:25;;;;;;;2.60;0.93;;;;;;;17.92;43.19;99975.40;1645213;85;21110;-72
2022/05/15 09:35:51;;;;;;;6.03;1.00;;;;;;;18.04;43.04;99972.61;1645166;86;21031;-72
2022/05/15 09:38:29;;;;;;;6.55;1.17;;;;;;;18.21;42.58;99984.19;1644872;86;21050;-71
2022/05/15 09:44:05;;;;;;;4.58;1.27;;;;;;;18.38;41.18;99986.05;1666862;85;21125;-71
2022/05/15 09:46:37;;;;;;;2.30;1.42;;;;;;;18.27;41.22;99979.17;1647007;86;21072;-70
2022/05/15 09:49:09;;;;;;;3.62;1.62;;;;;;;18.11;41.34;99988.63;1644507;86;21161;-72
2022/05/15 09:51:43;;;;;;;3.42;1.37;;;;;;;17.96;42.02;99977.88;1642392;86;21113;-70
2022/05/15 09:54:32;;;;;;;3.92;1.30;;;;;;;17.88;42.32;99988.55;1653624;86;21131;-70
2022/05/15 09:57:22;;;;;;;5.97;1.77;;;;;;;17.89;42.35;99986.66;1649339;85;21069;-71
2022/05/15 10:00:05;;;;;;;4.25;1.87;;;;;;;17.90;42.79;99987.77;1646379;86;21024;-70
2022/05/15 10:02:47;;;;;;;6.58;2.22;;;;;;;17.95;43.18;99999.19;1613385;87;21032;-72
2022/05/15 10:05:27;;;;;;;4.12;1.42;;;;;;;18.06;42.99;99965.92;1615274;87;21081;-71
2022/05/15 10:08:10;;;;;;;5.05;1.70;;;;;;;18.26;42.22;99972.66;1655988;86;21651;-71
2022/05/15 10:10:50;;;;;;;4.28;1.22;;;;;;;18.41;41.23;99985.02;1616131;87;21136;-71
2022/05/15 10:13:43;;;;;;;6.35;1.40;;;;;;;18.48;41.13;99984.85;1697897;83;21024;-71
2022/05/15 10:16:20;;;;;;;2.45;1.02;;;;;;;18.48;41.23;99978.11;1688127;83;21546;-71
2022/05/15 10:19:12;;;;;;;6.40;1.47;;;;;;;18.38;41.83;99984.70;1701823;83;21093;-70
2022/05/15 10:21:45;;;;;;;7.47;1.67;;;;;;;18.27;42.35;99990.47;1709249;83;21037;-71
2022/05/15 10:24:16;;;;;;;3.98;1.45;;;;;;;18.17;43.04;99988.45;1697529;83;20982;-71
2022/05/15 10:27:02;;;;;;;9.80;2.00;;;;;;;18.17;42.85;99984.94;1698235;83;20976;-71
2022/05/15 10:29:49;;;;;;;5.60;1.57;;;;;;;18.14;42.55;99986.77;1701428;83;21067;-71
2022/05/15 10:32:29;;;;;;;3.55;1.25;;;;;;;18.13;42.67;99993.24;1717999;83;21303;-71
2022/05/15 10:34:57;;;;;;;5.45;1.82;;;;;;;18.17;42.70;99991.69;1649973;84;21609;-71
2022/05/15 10:37:41;;;;;;;5.40;1.65;;;;;;;18.23;42.72;99994.22;1670391;84;21565;-71
2022/05/15 10:40:20;;;;;;;3.62;0.78;;;;;;;18.30;43.03;99987.29;1676736;84;21092;-71
2022/05/15 10:43:17;;;;;;;6.10;1.70;;;;;;;18.35;42.92;99995.47;1683771;85;21654;-72
2022/05/15 10:46:02;;;;;;;4.40;0.85;;;;;;;18.44;42.69;99998.02;1692408;83;21037;-71
2022/05/15 10:48:48;;;;;;;6.47;1.50;;;;;;;18.51;42.54;99997.02;1704823;83;21089;-70
2022/05/15 10:51:51;;;;;;;2.27;0.78;;;;;;;18.54;41.86;99993.84;1679355;83;21110;-73
2022/05/15 10:57:58;;;;;;;5.00;0.60;;;;;;;18.52;40.89;99981.94;1694472;83;21082;-71
2022/05/15 11:00:57;;;;;;;6.75;1.50;;;;;;;18.57;40.99;99992.81;1694688;83;21224;-71
2022/05/15 11:03:34;;;;;;;2.08;0.78;;;;;;;18.58;40.28;100003.06;1678663;83;21118;-72
2022/05/15 11:06:12;;;;;;;2.85;1.22;;;;;;;18.51;40.88;99998.38;1694506;83;21040;-73
2022/05/15 11:09:12;;;;;;;5.40;1.00;;;;;;;18.48;40.81;99996.45;1690881;83;21078;-71
2022/05/15 11:12:22;;;;;;;2.47;1.32;;;;;;;18.47;40.66;99991.30;1694977;83;21145;-72
2022/05/15 11:15:12;;;;;;;2.20;0.70;;;;;;;18.51;40.76;99987.03;1694814;83;21705;-71
2022/05/15 11:17:53;;;;;;;3.75;1.37;;;;;;;18.64;40.17;99983.97;1694871;83;21128;-71
2022/05/15 11:20:25;;;;;;;2.15;1.00;;;;;;;18.70;39.62;99974.59;1693147;83;21180;-70
2022/05/15 11:23:06;;;;;;;4.87;1.45;;;;;;;18.62;39.64;99979.90;1694454;84;21062;-71
2022/05/15 11:25:40;;;;;;;4.97;0.80;;;;;;;18.58;39.63;99980.13;1693496;83;21588;-71
2022/05/15 11:28:12;;;;;;;8.30;1.10;;;;;;;18.55;39.79;99973.86;1693708;84;21069;-70
2022/05/15 11:30:43;;;;;;;6.85;1.40;;;;;;;18.54;39.64;99984.39;1694917;83;21155;-72
2022/05/15 11:33:45;;;;;;;2.70;0.95;;;;;;;18.48;39.37;99987.01;1694357;84;21069;-71
2022/05/15 11:36:23;;;;;;;4.75;1.10;;;;;;;18.44;39.63;99992.63;1694215;83;21077;-70
2022/05/15 11:39:17;;;;;;;1.80;0.98;;;;;;;18.41;40.09;99996.35;1692655;83;21094;-71
2022/05/15 11:44:42;;;;;;;5.78;1.40;;;;;;;18.35;40.45;99983.86;1694577;84;21088;-70
2022/05/15 11:47:34;;;;;;;6.72;1.30;;;;;;;18.27;40.38;99985.08;1712566;83;21153;-72
2022/05/15 11:50:06;;;;;;;5.08;1.02;;;;;;;18.24;40.29;99976.15;1694879;84;21142;-71
2022/05/15 11:52:41;;;;;;;8.15;1.30;;;;;;;18.23;40.32;99979.89;1703594;83;21050;-71
2022/05/15 11:55:42;;;;;;;6.30;2.15;;;;;;;18.26;40.40;99976.71;1691143;84;21586;-72
2022/05/15 11:58:31;;;;;;;7.53;2.30;;;;;;;18.32;40.04;99963.57;1656493;85;21109;-70
2022/05/15 12:01:38;;;;;;;8.23;1.87;;;;;;;18.32;38.88;99978.41;1671963;85;21037;-71
2022/05/15 12:04:19;;;;;;;5.37;1.55;;;;;;;18.28;38.55;99978.09;1666924;85;21617;-71
2022/05/15 12:07:03;;;;;;;4.45;2.42;;;;;;;18.28;38.81;99965.14;1666552;85;21051;-71
2022/05/15 12:09:41;;;;;;;3.92;1.07;;;;;;;18.34;38.82;99980.33;1666743;85;21065;-69
2022/05/15 12:12:28;;;;;;;8.43;1.90;;;;;;;18.40;38.43;99977.16;1666349;84;21034;-71